No particular awareness of the weather is required.    There are no Weather-warnings


Meteo18 Weather Cam more information Meteo18 Weather Cam


Thunder radar more information blitzortung!


Rain radar more information rain snow radar


Visit our other weather sites:

Template documentation
and downloads

And another site



Weather Underground History page Text

Daily Summary for July 24, 2017 Units:  Both    English   Metric
« Previous Day
Next Day »
Daily Weekly Monthly Yearly Custom
  High: Low: Average:
Temperature: TemperatureC °F /  -17.8 °C 13.6 °F /  -10.2 °C 15.9 °F /  -8.9 °C
Dew Point: DewpointC °F /  -17.8 °C 11.7 °F /  -11.3 °C 13.5 °F /  -10.3 °C
Humidity: Humidity % 71 % 85 %
Wind Speed: WindSpeedKMH mph /  0 km/h - 8.7 mph /  14 km/h
Wind Gust: WindSpeedGustKMH mph /  0 km/h - -
Wind:- - West
Pressure: PressurehPa in /  0 hPa 1013.1 in /  34303.6 hPa -
Precipitation: 7.1 in /  180.34 mm    
Historical Graphs
 
 
Tabular Data for July 24, 2017
Time Temperature Dew Point Pressure Wind Wind Speed Wind Gust Humidity Rainfall Rate (Hourly)
TemperatureC °F /  -17.8 °C DewpointC °F /  -17.8 °C PressurehPa in /  0 hPa Calm     Humidity % HourlyPrecipMM in /  0 mm
00:02 16.2 °F /  -8.8 °C 15.1 °F /  -9.4 °C 1014.4 in /  34347.6 hPa SW 4.8 mph /  7.7 km/h 11.3 mph /  18.2 km/h 93 % 0.8 in /  20.32 mm
00:12 16.3 °F /  -8.7 °C 15.2 °F /  -9.3 °C 1014.4 in /  34347.6 hPa SW 8.0 mph /  12.9 km/h 11.3 mph /  18.2 km/h 93 % 0.8 in /  20.32 mm
00:17 16.3 °F /  -8.7 °C 15.2 °F /  -9.3 °C 1014.4 in /  34347.6 hPa WSW 4.8 mph /  7.7 km/h 16.1 mph /  25.9 km/h 93 % 0.8 in /  20.32 mm
00:22 16.3 °F /  -8.7 °C 15.2 °F /  -9.3 °C 1014.4 in /  34347.6 hPa WSW 4.8 mph /  7.7 km/h 16.1 mph /  25.9 km/h 93 % 0.5 in /  12.7 mm
00:32 16.3 °F /  -8.7 °C 15.0 °F /  -9.4 °C 1014.4 in /  34347.6 hPa SW 12.9 mph /  20.8 km/h 17.7 mph /  28.5 km/h 92 % 0.3 in /  7.62 mm
00:37 16.3 °F /  -8.7 °C 15.0 °F /  -9.4 °C 1014.4 in /  34347.6 hPa WSW 6.4 mph /  10.3 km/h 17.7 mph /  28.5 km/h 92 % 0.3 in /  7.62 mm
00:42 16.4 °F /  -8.7 °C 15.1 °F /  -9.4 °C 1014.4 in /  34347.6 hPa SW 16.1 mph /  25.9 km/h 22.5 mph /  36.2 km/h 92 % 0.0 in /  0 mm
00:52 16.3 °F /  -8.7 °C 15.2 °F /  -9.3 °C 1014.1 in /  34337.4 hPa SW 9.7 mph /  15.6 km/h 22.5 mph /  36.2 km/h 93 % 0.3 in /  7.62 mm
00:57 16.3 °F /  -8.7 °C 15.3 °F /  -9.3 °C 1014.1 in /  34337.4 hPa WSW 9.7 mph /  15.6 km/h 19.3 mph /  31.1 km/h 94 % 0.3 in /  7.62 mm
01:02 16.3 °F /  -8.7 °C 15.3 °F /  -9.3 °C 1013.8 in /  34327.3 hPa SW 16.1 mph /  25.9 km/h 19.3 mph /  31.1 km/h 94 % 0.3 in /  7.62 mm
01:07 16.3 °F /  -8.7 °C 15.3 °F /  -9.3 °C 1013.8 in /  34327.3 hPa SW 17.7 mph /  28.5 km/h 22.5 mph /  36.2 km/h 94 % 0.8 in /  20.32 mm
01:12 16.2 °F /  -8.8 °C 15.2 °F /  -9.3 °C 1013.8 in /  34327.3 hPa SSW 12.9 mph /  20.8 km/h 22.5 mph /  36.2 km/h 94 % 0.8 in /  20.32 mm
01:17 16.2 °F /  -8.8 °C 15.2 °F /  -9.3 °C 1013.8 in /  34327.3 hPa SW 14.5 mph /  23.3 km/h 25.7 mph /  41.4 km/h 94 % 2.0 in /  50.8 mm
01:22 16.2 °F /  -8.8 °C 15.2 °F /  -9.3 °C 1013.8 in /  34327.3 hPa SW 11.3 mph /  18.2 km/h 25.7 mph /  41.4 km/h 94 % 2.0 in /  50.8 mm
01:27 16.2 °F /  -8.8 °C 15.2 °F /  -9.3 °C 1013.4 in /  34313.7 hPa WSW 17.7 mph /  28.5 km/h 27.4 mph /  44.1 km/h 94 % 2.3 in /  58.42 mm
01:32 16.2 °F /  -8.8 °C 15.2 °F /  -9.3 °C 1013.4 in /  34313.7 hPa WSW 8.0 mph /  12.9 km/h 27.4 mph /  44.1 km/h 94 % 2.3 in /  58.42 mm
01:42 16.3 °F /  -8.7 °C 15.3 °F /  -9.3 °C 1013.4 in /  34313.7 hPa SW 16.1 mph /  25.9 km/h 27.4 mph /  44.1 km/h 94 % 3.3 in /  83.82 mm
01:52 16.3 °F /  -8.7 °C 15.3 °F /  -9.3 °C 1013.1 in /  34303.6 hPa SW 17.7 mph /  28.5 km/h 29.0 mph /  46.7 km/h 94 % 3.0 in /  76.2 mm
01:57 16.3 °F /  -8.7 °C 15.3 °F /  -9.3 °C 1013.1 in /  34303.6 hPa SW 12.9 mph /  20.8 km/h 29.0 mph /  46.7 km/h 94 % 3.0 in /  76.2 mm
02:02 16.3 °F /  -8.7 °C 15.3 °F /  -9.3 °C 1013.1 in /  34303.6 hPa SW 11.3 mph /  18.2 km/h 29.0 mph /  46.7 km/h 94 % 3.0 in /  76.2 mm
02:12 16.2 °F /  -8.8 °C 15.4 °F /  -9.2 °C 1013.1 in /  34303.6 hPa West 12.9 mph /  20.8 km/h 25.7 mph /  41.4 km/h 95 % 3.0 in /  76.2 mm
02:22 16.3 °F /  -8.7 °C 15.5 °F /  -9.2 °C 1013.1 in /  34303.6 hPa WSW 20.9 mph /  33.6 km/h 32.2 mph /  51.8 km/h 95 % 1.5 in /  38.1 mm
02:32 16.3 °F /  -8.7 °C 15.5 °F /  -9.2 °C 1013.1 in /  34303.6 hPa SW 6.4 mph /  10.3 km/h 30.6 mph /  49.2 km/h 95 % 1.0 in /  25.4 mm
02:42 15.5 °F /  -9.2 °C 14.4 °F /  -9.8 °C 1013.8 in /  34327.3 hPa NNW 4.8 mph /  7.7 km/h 41.8 mph /  67.3 km/h 93 % 1.0 in /  25.4 mm
02:47 15.3 °F /  -9.3 °C 14.2 °F /  -9.9 °C 1013.8 in /  34327.3 hPa North 3.2 mph /  5.1 km/h 41.8 mph /  67.3 km/h 93 % 1.3 in /  33.02 mm
02:52 15.1 °F /  -9.4 °C 14.0 °F /  -10 °C 1013.8 in /  34327.3 hPa NNW 3.2 mph /  5.1 km/h 41.8 mph /  67.3 km/h 93 % 1.3 in /  33.02 mm
02:57 14.9 °F /  -9.5 °C 13.8 °F /  -10.1 °C 1013.8 in /  34327.3 hPa WNW 6.4 mph /  10.3 km/h 14.5 mph /  23.3 km/h 93 % 1.0 in /  25.4 mm
03:02 14.8 °F /  -9.6 °C 13.7 °F /  -10.2 °C 1013.8 in /  34327.3 hPa NNW 4.8 mph /  7.7 km/h 14.5 mph /  23.3 km/h 93 % 1.0 in /  25.4 mm
03:12 14.7 °F /  -9.6 °C 13.6 °F /  -10.2 °C 1013.8 in /  34327.3 hPa West 1.6 mph /  2.6 km/h 16.1 mph /  25.9 km/h 93 % 1.0 in /  25.4 mm
03:17 14.6 °F /  -9.7 °C 13.5 °F /  -10.3 °C 1013.8 in /  34327.3 hPa North 1.6 mph /  2.6 km/h 12.9 mph /  20.8 km/h 93 % 0.8 in /  20.32 mm
03:22 14.6 °F /  -9.7 °C 13.6 °F /  -10.2 °C 1013.8 in /  34327.3 hPa Calm   12.9 mph /  20.8 km/h 94 % 0.8 in /  20.32 mm
03:32 14.5 °F /  -9.7 °C 13.5 °F /  -10.3 °C 1013.8 in /  34327.3 hPa Calm   6.4 mph /  10.3 km/h 94 % 1.0 in /  25.4 mm
03:37 14.4 °F /  -9.8 °C 13.4 °F /  -10.3 °C 1013.8 in /  34327.3 hPa Calm   4.8 mph /  7.7 km/h 94 % 0.5 in /  12.7 mm
03:42 14.4 °F /  -9.8 °C 13.4 °F /  -10.3 °C 1013.8 in /  34327.3 hPa Calm   4.8 mph /  7.7 km/h 94 % 0.5 in /  12.7 mm
03:52 14.4 °F /  -9.8 °C 13.4 °F /  -10.3 °C 1014.1 in /  34337.4 hPa NW 3.2 mph /  5.1 km/h 3.2 mph /  5.1 km/h 94 % 0.5 in /  12.7 mm
03:57 14.4 °F /  -9.8 °C 13.4 °F /  -10.3 °C 1014.4 in /  34347.6 hPa West 4.8 mph /  7.7 km/h 4.8 mph /  7.7 km/h 94 % 0.5 in /  12.7 mm
04:02 14.4 °F /  -9.8 °C 13.4 °F /  -10.3 °C 1014.4 in /  34347.6 hPa NW 1.6 mph /  2.6 km/h 3.2 mph /  5.1 km/h 94 % 0.5 in /  12.7 mm
04:07 14.4 °F /  -9.8 °C 13.4 °F /  -10.3 °C 1014.4 in /  34347.6 hPa WNW 3.2 mph /  5.1 km/h 9.7 mph /  15.6 km/h 94 % 0.5 in /  12.7 mm
04:12 14.3 °F /  -9.8 °C 13.3 °F /  -10.4 °C 1014.4 in /  34347.6 hPa WNW 3.2 mph /  5.1 km/h 9.7 mph /  15.6 km/h 94 % 0.5 in /  12.7 mm
04:17 14.2 °F /  -9.9 °C 13.2 °F /  -10.4 °C 1014.4 in /  34347.6 hPa NW 6.4 mph /  10.3 km/h 9.7 mph /  15.6 km/h 94 % 0.5 in /  12.7 mm
04:22 14.2 °F /  -9.9 °C 13.2 °F /  -10.4 °C 1014.4 in /  34347.6 hPa WNW 1.6 mph /  2.6 km/h 9.7 mph /  15.6 km/h 94 % 0.5 in /  12.7 mm
04:32 14.1 °F /  -9.9 °C 13.1 °F /  -10.5 °C 1014.4 in /  34347.6 hPa West 1.6 mph /  2.6 km/h 11.3 mph /  18.2 km/h 94 % 0.5 in /  12.7 mm
04:37 14.0 °F /  -10 °C 13.0 °F /  -10.6 °C 1014.4 in /  34347.6 hPa WNW 8.0 mph /  12.9 km/h 9.7 mph /  15.6 km/h 94 % 0.3 in /  7.62 mm
04:42 14.0 °F /  -10 °C 13.0 °F /  -10.6 °C 1014.4 in /  34347.6 hPa West 4.8 mph /  7.7 km/h 9.7 mph /  15.6 km/h 94 % 0.3 in /  7.62 mm
04:47 14.0 °F /  -10 °C 13.0 °F /  -10.6 °C 1014.1 in /  34337.4 hPa Calm   8.0 mph /  12.9 km/h 94 % 0.3 in /  7.62 mm
04:52 13.9 °F /  -10.1 °C 12.9 °F /  -10.6 °C 1014.1 in /  34337.4 hPa Calm   8.0 mph /  12.9 km/h 94 % 0.3 in /  7.62 mm
04:57 13.9 °F /  -10.1 °C 12.9 °F /  -10.6 °C 1014.1 in /  34337.4 hPa Calm   8.0 mph /  12.9 km/h 94 % 0.3 in /  7.62 mm
05:02 13.8 °F /  -10.1 °C 12.9 °F /  -10.6 °C 1014.1 in /  34337.4 hPa Calm   8.0 mph /  12.9 km/h 94 % 0.3 in /  7.62 mm
05:12 13.7 °F /  -10.2 °C 12.8 °F /  -10.7 °C 1014.1 in /  34337.4 hPa Calm   4.8 mph /  7.7 km/h 94 % 0.3 in /  7.62 mm
05:22 13.6 °F /  -10.2 °C 12.7 °F /  -10.7 °C 1014.4 in /  34347.6 hPa Calm   4.8 mph /  7.7 km/h 94 % 0.0 in /  0 mm
05:32 13.6 °F /  -10.2 °C 12.8 °F /  -10.7 °C 1014.4 in /  34347.6 hPa Calm   3.2 mph /  5.1 km/h 95 % 0.0 in /  0 mm
05:42 13.7 °F /  -10.2 °C 12.9 °F /  -10.6 °C 1014.4 in /  34347.6 hPa Calm   1.6 mph /  2.6 km/h 95 % 0.0 in /  0 mm
05:47 13.7 °F /  -10.2 °C 12.9 °F /  -10.6 °C 1014.4 in /  34347.6 hPa Calm   1.6 mph /  2.6 km/h 95 % 0.0 in /  0 mm
05:57 13.8 °F /  -10.1 °C 13.0 °F /  -10.6 °C 1014.4 in /  34347.6 hPa Calm   1.6 mph /  2.6 km/h 95 % 0.0 in /  0 mm
06:02 13.8 °F /  -10.1 °C 13.0 °F /  -10.6 °C 1014.4 in /  34347.6 hPa WSW 1.6 mph /  2.6 km/h 1.6 mph /  2.6 km/h 95 % 0.0 in /  0 mm
06:12 13.8 °F /  -10.1 °C 13.0 °F /  -10.6 °C 1014.4 in /  34347.6 hPa Calm   1.6 mph /  2.6 km/h 95 % 0.0 in /  0 mm
06:17 13.8 °F /  -10.1 °C 13.0 °F /  -10.6 °C 1014.4 in /  34347.6 hPa Calm   1.6 mph /  2.6 km/h 95 % 0.0 in /  0 mm
06:22 13.9 °F /  -10.1 °C 13.1 °F /  -10.5 °C 1014.8 in /  34361.1 hPa Calm   1.6 mph /  2.6 km/h 95 % 0.0 in /  0 mm
06:27 13.9 °F /  -10.1 °C 13.1 °F /  -10.5 °C 1014.8 in /  34361.1 hPa Calm   1.6 mph /  2.6 km/h 95 % 0.0 in /  0 mm
06:37 14.0 °F /  -10 °C 13.2 °F /  -10.4 °C 1014.8 in /  34361.1 hPa Calm   1.6 mph /  2.6 km/h 95 % 0.0 in /  0 mm
06:52 14.0 °F /  -10 °C 13.2 °F /  -10.4 °C 1014.8 in /  34361.1 hPa Calm     95 % 0.5 in /  12.7 mm
06:57 14.0 °F /  -10 °C 13.2 °F /  -10.4 °C 1014.8 in /  34361.1 hPa Calm     95 % 0.5 in /  12.7 mm
07:02 14.0 °F /  -10 °C 13.2 °F /  -10.4 °C 1014.8 in /  34361.1 hPa Calm     95 % 1.0 in /  25.4 mm
07:12 14.0 °F /  -10 °C 13.2 °F /  -10.4 °C 1014.8 in /  34361.1 hPa Calm     95 % 1.0 in /  25.4 mm
07:22 13.9 °F /  -10.1 °C 13.1 °F /  -10.5 °C 1014.8 in /  34361.1 hPa WNW 1.6 mph /  2.6 km/h 3.2 mph /  5.1 km/h 95 % 1.5 in /  38.1 mm
07:32 13.7 °F /  -10.2 °C 12.9 °F /  -10.6 °C 1015.1 in /  34371.3 hPa Calm   14.5 mph /  23.3 km/h 95 % 1.8 in /  45.72 mm
07:42 13.8 °F /  -10.1 °C 13.2 °F /  -10.4 °C 1015.1 in /  34371.3 hPa North 1.6 mph /  2.6 km/h 9.7 mph /  15.6 km/h 96 % 1.8 in /  45.72 mm
07:52 13.8 °F /  -10.1 °C 13.2 °F /  -10.4 °C 1015.1 in /  34371.3 hPa Calm   8.0 mph /  12.9 km/h 96 % 1.8 in /  45.72 mm
08:02 13.9 °F /  -10.1 °C 13.3 °F /  -10.4 °C 1014.8 in /  34361.1 hPa NW 3.2 mph /  5.1 km/h 4.8 mph /  7.7 km/h 96 % 1.5 in /  38.1 mm
08:07 14.1 °F /  -9.9 °C 13.3 °F /  -10.4 °C 1014.8 in /  34361.1 hPa WNW 4.8 mph /  7.7 km/h 6.4 mph /  10.3 km/h 95 % 1.3 in /  33.02 mm
08:12 14.1 °F /  -9.9 °C 13.3 °F /  -10.4 °C 1014.8 in /  34361.1 hPa WNW 8.0 mph /  12.9 km/h 8.0 mph /  12.9 km/h 95 % 1.3 in /  33.02 mm
08:17 14.2 °F /  -9.9 °C 13.4 °F /  -10.3 °C 1014.8 in /  34361.1 hPa WNW 4.8 mph /  7.7 km/h 8.0 mph /  12.9 km/h 95 % 0.5 in /  12.7 mm
08:22 14.1 °F /  -9.9 °C 13.3 °F /  -10.4 °C 1014.8 in /  34361.1 hPa West 1.6 mph /  2.6 km/h 8.0 mph /  12.9 km/h 95 % 0.5 in /  12.7 mm
08:32 14.5 °F /  -9.7 °C 13.5 °F /  -10.3 °C 1015.1 in /  34371.3 hPa NW 3.2 mph /  5.1 km/h 8.0 mph /  12.9 km/h 94 % 0.5 in /  12.7 mm
08:37 14.5 °F /  -9.7 °C 13.4 °F /  -10.3 °C 1015.1 in /  34371.3 hPa West 6.4 mph /  10.3 km/h 9.7 mph /  15.6 km/h 93 % 0.3 in /  7.62 mm
08:42 14.6 °F /  -9.7 °C 13.5 °F /  -10.3 °C 1015.1 in /  34371.3 hPa Calm   9.7 mph /  15.6 km/h 93 % 0.3 in /  7.62 mm
08:47 14.8 °F /  -9.6 °C 13.5 °F /  -10.3 °C 1015.1 in /  34371.3 hPa NNW 1.6 mph /  2.6 km/h 9.7 mph /  15.6 km/h 92 % 0.0 in /  0 mm
08:52 14.9 °F /  -9.5 °C 13.6 °F /  -10.2 °C 1015.1 in /  34371.3 hPa North 9.7 mph /  15.6 km/h 9.7 mph /  15.6 km/h 92 % 0.0 in /  0 mm
09:02 15.2 °F /  -9.3 °C 13.6 °F /  -10.2 °C 1015.5 in /  34384.8 hPa WNW 8.0 mph /  12.9 km/h 11.3 mph /  18.2 km/h 90 % 0.0 in /  0 mm
09:07 15.1 °F /  -9.4 °C 13.5 °F /  -10.3 °C 1015.5 in /  34384.8 hPa Calm   17.7 mph /  28.5 km/h 90 % 0.0 in /  0 mm
09:12 14.9 °F /  -9.5 °C 13.1 °F /  -10.5 °C 1015.5 in /  34384.8 hPa WNW 8.0 mph /  12.9 km/h 17.7 mph /  28.5 km/h 89 % 0.0 in /  0 mm
09:17 14.9 °F /  -9.5 °C 12.9 °F /  -10.6 °C 1015.5 in /  34384.8 hPa West 4.8 mph /  7.7 km/h 12.9 mph /  20.8 km/h 88 % 0.0 in /  0 mm
09:22 15.2 °F /  -9.3 °C 13.2 °F /  -10.4 °C 1015.5 in /  34384.8 hPa NNW 4.8 mph /  7.7 km/h 12.9 mph /  20.8 km/h 88 % 0.0 in /  0 mm
09:32 15.4 °F /  -9.2 °C 13.1 °F /  -10.5 °C 1015.5 in /  34384.8 hPa WNW 12.9 mph /  20.8 km/h 12.9 mph /  20.8 km/h 86 % 0.0 in /  0 mm
09:37 15.6 °F /  -9.1 °C 12.9 °F /  -10.6 °C 1015.5 in /  34384.8 hPa NW 11.3 mph /  18.2 km/h 16.1 mph /  25.9 km/h 84 % 0.0 in /  0 mm
09:42 15.3 °F /  -9.3 °C 12.6 °F /  -10.8 °C 1015.5 in /  34384.8 hPa NW 8.0 mph /  12.9 km/h 16.1 mph /  25.9 km/h 84 % 0.0 in /  0 mm
09:52 15.4 °F /  -9.2 °C 13.1 °F /  -10.5 °C 1015.8 in /  34395 hPa North 4.8 mph /  7.7 km/h 20.9 mph /  33.6 km/h 86 % 0.0 in /  0 mm
10:02 15.8 °F /  -9 °C 13.3 °F /  -10.4 °C 1015.8 in /  34395 hPa West 6.4 mph /  10.3 km/h 17.7 mph /  28.5 km/h 85 % 0.0 in /  0 mm
10:12 15.5 °F /  -9.2 °C 13.2 °F /  -10.4 °C 1015.8 in /  34395 hPa WNW 3.2 mph /  5.1 km/h 20.9 mph /  33.6 km/h 86 % 0.0 in /  0 mm
10:17 15.8 °F /  -9 °C 13.5 °F /  -10.3 °C 1015.8 in /  34395 hPa NW 12.9 mph /  20.8 km/h 17.7 mph /  28.5 km/h 86 % 0.0 in /  0 mm
10:22 15.5 °F /  -9.2 °C 12.6 °F /  -10.8 °C 1016.1 in /  34405.1 hPa NW 17.7 mph /  28.5 km/h 17.7 mph /  28.5 km/h 83 % 0.0 in /  0 mm
10:32 15.6 °F /  -9.1 °C 12.5 °F /  -10.8 °C 1016.1 in /  34405.1 hPa NW 3.2 mph /  5.1 km/h 25.7 mph /  41.4 km/h 82 % 0.0 in /  0 mm
10:37 15.9 °F /  -8.9 °C 13.2 °F /  -10.4 °C 1015.8 in /  34395 hPa WNW 12.9 mph /  20.8 km/h 20.9 mph /  33.6 km/h 84 % 0.0 in /  0 mm
10:42 16.2 °F /  -8.8 °C 13.1 °F /  -10.5 °C 1015.8 in /  34395 hPa West 8.0 mph /  12.9 km/h 20.9 mph /  33.6 km/h 82 % 0.0 in /  0 mm
10:52 16.0 °F /  -8.9 °C 12.9 °F /  -10.6 °C 1015.8 in /  34395 hPa WSW 9.7 mph /  15.6 km/h 16.1 mph /  25.9 km/h 82 % 0.0 in /  0 mm
10:57 15.9 °F /  -8.9 °C 13.0 °F /  -10.6 °C 1015.8 in /  34395 hPa WSW 9.7 mph /  15.6 km/h 20.9 mph /  33.6 km/h 83 % 0.0 in /  0 mm
11:02 16.1 °F /  -8.8 °C 12.8 °F /  -10.7 °C 1015.8 in /  34395 hPa WNW 17.7 mph /  28.5 km/h 20.9 mph /  33.6 km/h 81 % 0.0 in /  0 mm
11:12 16.3 °F /  -8.7 °C 12.7 °F /  -10.7 °C 1016.1 in /  34405.1 hPa WSW 8.0 mph /  12.9 km/h 19.3 mph /  31.1 km/h 79 % 0.0 in /  0 mm
11:22 16.2 °F /  -8.8 °C 12.9 °F /  -10.6 °C 1016.1 in /  34405.1 hPa West 11.3 mph /  18.2 km/h 24.1 mph /  38.8 km/h 81 % 0.0 in /  0 mm
11:32 16.1 °F /  -8.8 °C 12.5 °F /  -10.8 °C 1016.5 in /  34418.7 hPa WSW 24.1 mph /  38.8 km/h 24.1 mph /  38.8 km/h 79 % 0.0 in /  0 mm
11:42 15.9 °F /  -8.9 °C 12.3 °F /  -10.9 °C 1016.5 in /  34418.7 hPa WNW 8.0 mph /  12.9 km/h 24.1 mph /  38.8 km/h 79 % 0.0 in /  0 mm
11:47 16.1 °F /  -8.8 °C 12.1 °F /  -11.1 °C 1016.5 in /  34418.7 hPa West 16.1 mph /  25.9 km/h 25.7 mph /  41.4 km/h 77 % 0.0 in /  0 mm
11:52 16.2 °F /  -8.8 °C 12.2 °F /  -11 °C 1016.5 in /  34418.7 hPa NNW 6.4 mph /  10.3 km/h 25.7 mph /  41.4 km/h 77 % 0.0 in /  0 mm
12:02 16.3 °F /  -8.7 °C 12.5 °F /  -10.8 °C 1016.5 in /  34418.7 hPa WNW 11.3 mph /  18.2 km/h 27.4 mph /  44.1 km/h 78 % 0.0 in /  0 mm
12:07 16.1 °F /  -8.8 °C 12.1 °F /  -11.1 °C 1016.5 in /  34418.7 hPa WNW 17.7 mph /  28.5 km/h 27.4 mph /  44.1 km/h 77 % 0.0 in /  0 mm
12:12 15.9 °F /  -8.9 °C 12.3 °F /  -10.9 °C 1016.8 in /  34428.8 hPa WNW 19.3 mph /  31.1 km/h 27.4 mph /  44.1 km/h 79 % 0.0 in /  0 mm
12:17 15.6 °F /  -9.1 °C 12.2 °F /  -11 °C 1016.8 in /  34428.8 hPa West 12.9 mph /  20.8 km/h 24.1 mph /  38.8 km/h 80 % 0.0 in /  0 mm
12:27 14.9 °F /  -9.5 °C 11.7 °F /  -11.3 °C 1016.8 in /  34428.8 hPa WSW 9.7 mph /  15.6 km/h 24.1 mph /  38.8 km/h 81 % 0.0 in /  0 mm
12:32 15.0 °F /  -9.4 °C 12.0 °F /  -11.1 °C 1016.8 in /  34428.8 hPa West 9.7 mph /  15.6 km/h 24.1 mph /  38.8 km/h 82 % 0.0 in /  0 mm
12:37 15.2 °F /  -9.3 °C 12.0 °F /  -11.1 °C 1016.8 in /  34428.8 hPa SW 8.0 mph /  12.9 km/h 24.1 mph /  38.8 km/h 81 % 0.0 in /  0 mm
12:42 15.2 °F /  -9.3 °C 12.0 °F /  -11.1 °C 1016.8 in /  34428.8 hPa WNW 8.0 mph /  12.9 km/h 22.5 mph /  36.2 km/h 81 % 0.0 in /  0 mm
12:52 15.3 °F /  -9.3 °C 12.1 °F /  -11.1 °C 1016.8 in /  34428.8 hPa West 16.1 mph /  25.9 km/h 22.5 mph /  36.2 km/h 81 % 0.0 in /  0 mm
12:57 15.2 °F /  -9.3 °C 12.0 °F /  -11.1 °C 1016.8 in /  34428.8 hPa WNW 6.4 mph /  10.3 km/h 22.5 mph /  36.2 km/h 81 % 0.0 in /  0 mm
13:02 15.4 °F /  -9.2 °C 12.5 °F /  -10.8 °C 1016.8 in /  34428.8 hPa WSW 6.4 mph /  10.3 km/h 22.5 mph /  36.2 km/h 83 % 0.0 in /  0 mm
13:12 15.6 °F /  -9.1 °C 12.4 °F /  -10.9 °C 1016.8 in /  34428.8 hPa West 8.0 mph /  12.9 km/h 22.5 mph /  36.2 km/h 81 % 0.0 in /  0 mm
13:17 15.7 °F /  -9.1 °C 12.4 °F /  -10.9 °C 1016.8 in /  34428.8 hPa West 4.8 mph /  7.7 km/h 19.3 mph /  31.1 km/h 81 % 0.0 in /  0 mm
13:27 16.3 °F /  -8.7 °C 12.7 °F /  -10.7 °C 1016.8 in /  34428.8 hPa SW 12.9 mph /  20.8 km/h 20.9 mph /  33.6 km/h 79 % 0.0 in /  0 mm
13:32 16.3 °F /  -8.7 °C 12.5 °F /  -10.8 °C 1016.8 in /  34428.8 hPa SSW 8.0 mph /  12.9 km/h 20.9 mph /  33.6 km/h 78 % 0.0 in /  0 mm
13:37 16.4 °F /  -8.7 °C 12.6 °F /  -10.8 °C 1016.8 in /  34428.8 hPa WSW 11.3 mph /  18.2 km/h 20.9 mph /  33.6 km/h 78 % 0.0 in /  0 mm
13:57 16.7 °F /  -8.5 °C 12.8 °F /  -10.7 °C 1016.8 in /  34428.8 hPa WNW 6.4 mph /  10.3 km/h 20.9 mph /  33.6 km/h 78 % 0.0 in /  0 mm
14:02 16.8 °F /  -8.4 °C 12.7 °F /  -10.7 °C 1016.8 in /  34428.8 hPa West 12.9 mph /  20.8 km/h 20.9 mph /  33.6 km/h 77 % 0.0 in /  0 mm
14:07 16.7 °F /  -8.5 °C 12.6 °F /  -10.8 °C 1016.8 in /  34428.8 hPa WSW 11.3 mph /  18.2 km/h 20.9 mph /  33.6 km/h 77 % 0.0 in /  0 mm
14:12 16.8 °F /  -8.4 °C 12.9 °F /  -10.6 °C 1016.8 in /  34428.8 hPa WSW 9.7 mph /  15.6 km/h 20.9 mph /  33.6 km/h 78 % 0.0 in /  0 mm
14:17 16.6 °F /  -8.6 °C 12.6 °F /  -10.8 °C 1016.8 in /  34428.8 hPa West 25.7 mph /  41.4 km/h 25.7 mph /  41.4 km/h 77 % 0.0 in /  0 mm
14:22 16.7 °F /  -8.5 °C 12.8 °F /  -10.7 °C 1016.8 in /  34428.8 hPa West 8.0 mph /  12.9 km/h 22.5 mph /  36.2 km/h 78 % 0.0 in /  0 mm
14:32 17.2 °F /  -8.2 °C 12.7 °F /  -10.7 °C 1016.8 in /  34428.8 hPa West 6.4 mph /  10.3 km/h 25.7 mph /  41.4 km/h 75 % 0.0 in /  0 mm
14:42 17.6 °F /  -8 °C 13.1 °F /  -10.5 °C 1016.5 in /  34418.7 hPa West 8.0 mph /  12.9 km/h 20.9 mph /  33.6 km/h 75 % 0.0 in /  0 mm
14:47 17.5 °F /  -8.1 °C 12.8 °F /  -10.7 °C 1016.5 in /  34418.7 hPa WSW 14.5 mph /  23.3 km/h 27.4 mph /  44.1 km/h 74 % 0.0 in /  0 mm
14:57 17.7 °F /  -7.9 °C 13.0 °F /  -10.6 °C 1016.5 in /  34418.7 hPa West 14.5 mph /  23.3 km/h 25.7 mph /  41.4 km/h 74 % 0.0 in /  0 mm
15:02 17.9 °F /  -7.8 °C 13.0 °F /  -10.6 °C 1016.5 in /  34418.7 hPa WNW 11.3 mph /  18.2 km/h 25.7 mph /  41.4 km/h 73 % 0.0 in /  0 mm
15:12 17.9 °F /  -7.8 °C 13.0 °F /  -10.6 °C 1016.5 in /  34418.7 hPa West 11.3 mph /  18.2 km/h 27.4 mph /  44.1 km/h 73 % 0.0 in /  0 mm
15:17 17.9 °F /  -7.8 °C 13.0 °F /  -10.6 °C 1016.5 in /  34418.7 hPa WSW 9.7 mph /  15.6 km/h 27.4 mph /  44.1 km/h 73 % 0.0 in /  0 mm
15:22 17.9 °F /  -7.8 °C 13.2 °F /  -10.4 °C 1016.5 in /  34418.7 hPa West 16.1 mph /  25.9 km/h 27.4 mph /  44.1 km/h 74 % 0.0 in /  0 mm
15:32 18.6 °F /  -7.4 °C 13.2 °F /  -10.4 °C 1016.5 in /  34418.7 hPa West 16.1 mph /  25.9 km/h 27.4 mph /  44.1 km/h 71 % 0.0 in /  0 mm
15:42 17.8 °F /  -7.9 °C 12.9 °F /  -10.6 °C 1016.5 in /  34418.7 hPa WSW 14.5 mph /  23.3 km/h 27.4 mph /  44.1 km/h 73 % 0.0 in /  0 mm
15:52 17.6 °F /  -8 °C 13.1 °F /  -10.5 °C 1016.5 in /  34418.7 hPa West 8.0 mph /  12.9 km/h 27.4 mph /  44.1 km/h 75 % 0.0 in /  0 mm
16:02 17.7 °F /  -7.9 °C 12.8 °F /  -10.7 °C 1016.5 in /  34418.7 hPa West 12.9 mph /  20.8 km/h 25.7 mph /  41.4 km/h 73 % 0.0 in /  0 mm
16:12 17.7 °F /  -7.9 °C 12.8 °F /  -10.7 °C 1016.8 in /  34428.8 hPa West 8.0 mph /  12.9 km/h 25.7 mph /  41.4 km/h 73 % 0.0 in /  0 mm
16:17 17.7 °F /  -7.9 °C 13.0 °F /  -10.6 °C 1016.5 in /  34418.7 hPa WNW 19.3 mph /  31.1 km/h 27.4 mph /  44.1 km/h 74 % 0.0 in /  0 mm
16:22 17.5 °F /  -8.1 °C 13.0 °F /  -10.6 °C 1016.8 in /  34428.8 hPa WSW 16.1 mph /  25.9 km/h 27.4 mph /  44.1 km/h 75 % 0.0 in /  0 mm
16:32 17.0 °F /  -8.3 °C 13.1 °F /  -10.5 °C 1016.8 in /  34428.8 hPa West 9.7 mph /  15.6 km/h 27.4 mph /  44.1 km/h 78 % 0.0 in /  0 mm
16:37 16.9 °F /  -8.4 °C 13.2 °F /  -10.4 °C 1016.8 in /  34428.8 hPa WNW 14.5 mph /  23.3 km/h 25.7 mph /  41.4 km/h 79 % 0.0 in /  0 mm
16:42 16.7 °F /  -8.5 °C 13.2 °F /  -10.4 °C 1016.8 in /  34428.8 hPa West 9.7 mph /  15.6 km/h 25.7 mph /  41.4 km/h 80 % 0.0 in /  0 mm
16:52 16.6 °F /  -8.6 °C 13.5 °F /  -10.3 °C 1016.8 in /  34428.8 hPa West 11.3 mph /  18.2 km/h 20.9 mph /  33.6 km/h 82 % 0.0 in /  0 mm
16:57 16.7 °F /  -8.5 °C 13.4 °F /  -10.3 °C 1016.8 in /  34428.8 hPa WSW 11.3 mph /  18.2 km/h 22.5 mph /  36.2 km/h 81 % 0.0 in /  0 mm
17:02 16.8 °F /  -8.4 °C 13.3 °F /  -10.4 °C 1016.8 in /  34428.8 hPa West 11.3 mph /  18.2 km/h 22.5 mph /  36.2 km/h 80 % 0.0 in /  0 mm
17:12 17.2 °F /  -8.2 °C 13.5 °F /  -10.3 °C 1016.5 in /  34418.7 hPa WSW 8.0 mph /  12.9 km/h 22.5 mph /  36.2 km/h 79 % 0.0 in /  0 mm
17:17 17.4 °F /  -8.1 °C 13.3 °F /  -10.4 °C 1016.5 in /  34418.7 hPa West 11.3 mph /  18.2 km/h 25.7 mph /  41.4 km/h 77 % 0.0 in /  0 mm
17:22 17.6 °F /  -8 °C 13.5 °F /  -10.3 °C 1016.5 in /  34418.7 hPa WSW 20.9 mph /  33.6 km/h 25.7 mph /  41.4 km/h 77 % 0.0 in /  0 mm
17:27 17.7 °F /  -7.9 °C 13.4 °F /  -10.3 °C 1016.5 in /  34418.7 hPa West 11.3 mph /  18.2 km/h 25.7 mph /  41.4 km/h 76 % 0.0 in /  0 mm
17:32 17.7 °F /  -7.9 °C 13.4 °F /  -10.3 °C 1016.5 in /  34418.7 hPa WNW 22.5 mph /  36.2 km/h 25.7 mph /  41.4 km/h 76 % 0.0 in /  0 mm
17:37 17.7 °F /  -7.9 °C 13.6 °F /  -10.2 °C 1016.5 in /  34418.7 hPa West 14.5 mph /  23.3 km/h 27.4 mph /  44.1 km/h 77 % 0.0 in /  0 mm
17:42 17.8 °F /  -7.9 °C 13.5 °F /  -10.3 °C 1016.5 in /  34418.7 hPa NW 17.7 mph /  28.5 km/h 27.4 mph /  44.1 km/h 76 % 0.0 in /  0 mm
17:47 17.8 °F /  -7.9 °C 13.5 °F /  -10.3 °C 1016.5 in /  34418.7 hPa SW 9.7 mph /  15.6 km/h 27.4 mph /  44.1 km/h 76 % 0.0 in /  0 mm
17:52 17.7 °F /  -7.9 °C 13.6 °F /  -10.2 °C 1016.5 in /  34418.7 hPa West 12.9 mph /  20.8 km/h 27.4 mph /  44.1 km/h 77 % 0.0 in /  0 mm
17:57 17.6 °F /  -8 °C 13.5 °F /  -10.3 °C 1016.5 in /  34418.7 hPa West 6.4 mph /  10.3 km/h 24.1 mph /  38.8 km/h 77 % 0.0 in /  0 mm
18:02 17.7 °F /  -7.9 °C 13.6 °F /  -10.2 °C 1016.5 in /  34418.7 hPa West 12.9 mph /  20.8 km/h 24.1 mph /  38.8 km/h 77 % 0.0 in /  0 mm
18:12 17.6 °F /  -8 °C 13.7 °F /  -10.2 °C 1016.5 in /  34418.7 hPa WSW 17.7 mph /  28.5 km/h 24.1 mph /  38.8 km/h 78 % 0.0 in /  0 mm
18:17 17.7 °F /  -7.9 °C 13.8 °F /  -10.1 °C 1016.5 in /  34418.7 hPa WNW 16.1 mph /  25.9 km/h 19.3 mph /  31.1 km/h 78 % 0.0 in /  0 mm
18:22 17.8 °F /  -7.9 °C 13.9 °F /  -10.1 °C 1016.1 in /  34405.1 hPa WSW 16.1 mph /  25.9 km/h 19.3 mph /  31.1 km/h 78 % 0.0 in /  0 mm
18:27 17.8 °F /  -7.9 °C 14.1 °F /  -9.9 °C 1016.5 in /  34418.7 hPa NW 3.2 mph /  5.1 km/h 19.3 mph /  31.1 km/h 79 % 0.0 in /  0 mm
18:32 17.8 °F /  -7.9 °C 14.1 °F /  -9.9 °C 1016.5 in /  34418.7 hPa West 12.9 mph /  20.8 km/h 25.7 mph /  41.4 km/h 79 % 0.0 in /  0 mm
18:42 17.7 °F /  -7.9 °C 14.4 °F /  -9.8 °C 1016.5 in /  34418.7 hPa West 9.7 mph /  15.6 km/h 25.7 mph /  41.4 km/h 81 % 0.0 in /  0 mm
18:47 17.6 °F /  -8 °C 14.3 °F /  -9.8 °C 1016.5 in /  34418.7 hPa WSW 12.9 mph /  20.8 km/h 25.7 mph /  41.4 km/h 81 % 0.0 in /  0 mm
18:57 17.4 °F /  -8.1 °C 14.1 °F /  -9.9 °C 1016.5 in /  34418.7 hPa WNW 12.9 mph /  20.8 km/h 25.7 mph /  41.4 km/h 81 % 0.0 in /  0 mm
19:02 17.4 °F /  -8.1 °C 14.3 °F /  -9.8 °C 1016.5 in /  34418.7 hPa WNW 1.6 mph /  2.6 km/h 25.7 mph /  41.4 km/h 82 % 0.0 in /  0 mm
19:12 17.5 °F /  -8.1 °C 14.2 °F /  -9.9 °C 1016.5 in /  34418.7 hPa WNW 6.4 mph /  10.3 km/h 20.9 mph /  33.6 km/h 81 % 0.0 in /  0 mm
19:17 17.5 °F /  -8.1 °C 14.2 °F /  -9.9 °C 1016.5 in /  34418.7 hPa West 9.7 mph /  15.6 km/h 24.1 mph /  38.8 km/h 81 % 0.0 in /  0 mm
19:22 17.6 °F /  -8 °C 14.3 °F /  -9.8 °C 1016.5 in /  34418.7 hPa WNW 17.7 mph /  28.5 km/h 24.1 mph /  38.8 km/h 81 % 0.0 in /  0 mm
19:27 17.6 °F /  -8 °C 14.5 °F /  -9.7 °C 1016.8 in /  34428.8 hPa WNW 9.7 mph /  15.6 km/h 27.4 mph /  44.1 km/h 82 % 0.0 in /  0 mm
19:32 17.6 °F /  -8 °C 14.5 °F /  -9.7 °C 1016.5 in /  34418.7 hPa West 11.3 mph /  18.2 km/h 27.4 mph /  44.1 km/h 82 % 0.0 in /  0 mm
19:42 17.6 °F /  -8 °C 14.3 °F /  -9.8 °C 1016.8 in /  34428.8 hPa West 8.0 mph /  12.9 km/h 22.5 mph /  36.2 km/h 81 % 0.0 in /  0 mm
19:52 17.7 °F /  -7.9 °C 14.4 °F /  -9.8 °C 1016.8 in /  34428.8 hPa WNW 6.4 mph /  10.3 km/h 22.5 mph /  36.2 km/h 81 % 0.0 in /  0 mm
19:57 17.6 °F /  -8 °C 14.3 °F /  -9.8 °C 1016.8 in /  34428.8 hPa West 11.3 mph /  18.2 km/h 19.3 mph /  31.1 km/h 81 % 0.0 in /  0 mm
20:02 17.3 °F /  -8.2 °C 14.2 °F /  -9.9 °C 1016.8 in /  34428.8 hPa WNW 11.3 mph /  18.2 km/h 19.3 mph /  31.1 km/h 82 % 0.0 in /  0 mm
20:12 17.5 °F /  -8.1 °C 14.2 °F /  -9.9 °C 1016.8 in /  34428.8 hPa WNW 6.4 mph /  10.3 km/h 25.7 mph /  41.4 km/h 81 % 0.0 in /  0 mm
20:17 17.4 °F /  -8.1 °C 14.1 °F /  -9.9 °C 1016.8 in /  34428.8 hPa WNW 9.7 mph /  15.6 km/h 27.4 mph /  44.1 km/h 81 % 0.0 in /  0 mm
20:22 17.3 °F /  -8.2 °C 14.0 °F /  -10 °C 1016.8 in /  34428.8 hPa WNW 9.7 mph /  15.6 km/h 27.4 mph /  44.1 km/h 81 % 0.0 in /  0 mm
20:32 17.2 °F /  -8.2 °C 14.1 °F /  -9.9 °C 1016.8 in /  34428.8 hPa West 6.4 mph /  10.3 km/h 27.4 mph /  44.1 km/h 82 % 0.0 in /  0 mm
20:37 17.2 °F /  -8.2 °C 14.3 °F /  -9.8 °C 1016.8 in /  34428.8 hPa WSW 8.0 mph /  12.9 km/h 22.5 mph /  36.2 km/h 83 % 0.0 in /  0 mm
20:42 17.2 °F /  -8.2 °C 14.3 °F /  -9.8 °C 1016.8 in /  34428.8 hPa WSW 9.7 mph /  15.6 km/h 22.5 mph /  36.2 km/h 83 % 0.0 in /  0 mm
20:47 17.2 °F /  -8.2 °C 14.3 °F /  -9.8 °C 1016.8 in /  34428.8 hPa WSW 9.7 mph /  15.6 km/h 20.9 mph /  33.6 km/h 83 % 0.0 in /  0 mm
20:52 17.1 °F /  -8.3 °C 14.2 °F /  -9.9 °C 1016.8 in /  34428.8 hPa WNW 11.3 mph /  18.2 km/h 20.9 mph /  33.6 km/h 83 % 0.0 in /  0 mm
20:57 17.1 °F /  -8.3 °C 14.4 °F /  -9.8 °C 1017.2 in /  34442.4 hPa West 12.9 mph /  20.8 km/h 24.1 mph /  38.8 km/h 84 % 0.0 in /  0 mm
21:02 17.1 °F /  -8.3 °C 14.2 °F /  -9.9 °C 1017.2 in /  34442.4 hPa NW 8.0 mph /  12.9 km/h 24.1 mph /  38.8 km/h 83 % 0.0 in /  0 mm
21:12 17.0 °F /  -8.3 °C 14.3 °F /  -9.8 °C 1016.8 in /  34428.8 hPa West 9.7 mph /  15.6 km/h 24.1 mph /  38.8 km/h 84 % 0.0 in /  0 mm
21:17 17.0 °F /  -8.3 °C 14.3 °F /  -9.8 °C 1016.8 in /  34428.8 hPa West 6.4 mph /  10.3 km/h 22.5 mph /  36.2 km/h 84 % 0.0 in /  0 mm
21:22 16.9 °F /  -8.4 °C 14.2 °F /  -9.9 °C 1017.2 in /  34442.4 hPa WNW 11.3 mph /  18.2 km/h 22.5 mph /  36.2 km/h 84 % 0.0 in /  0 mm
21:32 16.9 °F /  -8.4 °C 14.2 °F /  -9.9 °C 1017.2 in /  34442.4 hPa WNW 14.5 mph /  23.3 km/h 27.4 mph /  44.1 km/h 84 % 0.0 in /  0 mm
21:42 16.9 °F /  -8.4 °C 14.2 °F /  -9.9 °C 1017.2 in /  34442.4 hPa WNW 20.9 mph /  33.6 km/h 24.1 mph /  38.8 km/h 84 % 0.0 in /  0 mm
21:47 16.9 °F /  -8.4 °C 14.2 °F /  -9.9 °C 1017.2 in /  34442.4 hPa WNW 14.5 mph /  23.3 km/h 27.4 mph /  44.1 km/h 84 % 0.0 in /  0 mm
21:52 16.8 °F /  -8.4 °C 14.1 °F /  -9.9 °C 1017.2 in /  34442.4 hPa WSW 6.4 mph /  10.3 km/h 27.4 mph /  44.1 km/h 84 % 0.0 in /  0 mm
21:57 16.8 °F /  -8.4 °C 14.1 °F /  -9.9 °C 1017.5 in /  34452.6 hPa WNW 9.7 mph /  15.6 km/h 25.7 mph /  41.4 km/h 84 % 0.0 in /  0 mm
22:07 16.8 °F /  -8.4 °C 14.1 °F /  -9.9 °C 1017.5 in /  34452.6 hPa WNW 9.7 mph /  15.6 km/h 25.7 mph /  41.4 km/h 84 % 0.0 in /  0 mm
22:12 16.8 °F /  -8.4 °C 13.9 °F /  -10.1 °C 1017.5 in /  34452.6 hPa WNW 9.7 mph /  15.6 km/h 25.7 mph /  41.4 km/h 83 % 0.0 in /  0 mm
22:17 16.9 °F /  -8.4 °C 14.0 °F /  -10 °C 1017.5 in /  34452.6 hPa West 9.7 mph /  15.6 km/h 32.2 mph /  51.8 km/h 83 % 0.0 in /  0 mm
22:22 16.8 °F /  -8.4 °C 13.7 °F /  -10.2 °C 1017.5 in /  34452.6 hPa NW 14.5 mph /  23.3 km/h 32.2 mph /  51.8 km/h 82 % 0.0 in /  0 mm
22:32 16.8 °F /  -8.4 °C 13.7 °F /  -10.2 °C 1017.8 in /  34462.7 hPa WSW 14.5 mph /  23.3 km/h 29.0 mph /  46.7 km/h 82 % 0.0 in /  0 mm
22:37 16.7 °F /  -8.5 °C 13.6 °F /  -10.2 °C 1017.8 in /  34462.7 hPa WNW 9.7 mph /  15.6 km/h 29.0 mph /  46.7 km/h 82 % 0.0 in /  0 mm
22:42 16.7 °F /  -8.5 °C 13.6 °F /  -10.2 °C 1017.8 in /  34462.7 hPa NNW 14.5 mph /  23.3 km/h 29.0 mph /  46.7 km/h 82 % 0.0 in /  0 mm
22:47 16.7 °F /  -8.5 °C 13.6 °F /  -10.2 °C 1017.8 in /  34462.7 hPa NNE 14.5 mph /  23.3 km/h 27.4 mph /  44.1 km/h 82 % 0.0 in /  0 mm
22:52 16.7 °F /  -8.5 °C 13.6 °F /  -10.2 °C 1017.8 in /  34462.7 hPa WNW 11.3 mph /  18.2 km/h 27.4 mph /  44.1 km/h 82 % 0.0 in /  0 mm
23:02 16.7 °F /  -8.5 °C 13.4 °F /  -10.3 °C 1018.2 in /  34476.3 hPa NW 9.7 mph /  15.6 km/h 24.1 mph /  38.8 km/h 81 % 0.0 in /  0 mm
23:12 16.5 °F /  -8.6 °C 13.4 °F /  -10.3 °C 1018.5 in /  34486.4 hPa NW 8.0 mph /  12.9 km/h 24.1 mph /  38.8 km/h 82 % 0.0 in /  0 mm
23:17 16.3 °F /  -8.7 °C 13.4 °F /  -10.3 °C 1018.5 in /  34486.4 hPa West 6.4 mph /  10.3 km/h 27.4 mph /  44.1 km/h 83 % 0.0 in /  0 mm
23:22 16.1 °F /  -8.8 °C 13.4 °F /  -10.3 °C 1018.5 in /  34486.4 hPa North 16.1 mph /  25.9 km/h 27.4 mph /  44.1 km/h 84 % 0.0 in /  0 mm
23:32 15.9 °F /  -8.9 °C 13.4 °F /  -10.3 °C 1018.5 in /  34486.4 hPa WNW 6.4 mph /  10.3 km/h 24.1 mph /  38.8 km/h 85 % 0.0 in /  0 mm
23:42 15.9 °F /  -8.9 °C 13.4 °F /  -10.3 °C 1018.2 in /  34476.3 hPa WNW 8.0 mph /  12.9 km/h 16.1 mph /  25.9 km/h 85 % 0.0 in /  0 mm
23:47 15.9 °F /  -8.9 °C 13.4 °F /  -10.3 °C 1018.5 in /  34486.4 hPa WNW 9.7 mph /  15.6 km/h 14.5 mph /  23.3 km/h 85 % 0.0 in /  0 mm
23:52 16.0 °F /  -8.9 °C 13.5 °F /  -10.3 °C 1018.5 in /  34486.4 hPa West 12.9 mph /  20.8 km/h 14.5 mph /  23.3 km/h 85 % 0.0 in /  0 mm
23:57 15.9 °F /  -8.9 °C 13.6 °F /  -10.2 °C 1018.5 in /  34486.4 hPa West 16.1 mph /  25.9 km/h 19.3 mph /  31.1 km/h 86 % 0.0 in /  0 mm
Meteo18
Compliments of Weather Underground - 4 mb

Script developed by  Jim McMurry - jmcmurry@mwt.net Adapted for the template by  Wim van der Kuil - Leuven-Template.eu

You find our weather info also at:

European Weather Network

Weather Underground

Equipment we use:

Weather-station
Davis Vue

Weather-program
Meteobridge

Weather-server
Raspberry PI 2 B+

Provider
1 and 1

Davis Vue

Meteobridge

Raspberry PI 2 B+

1 and 1